Soleil Laural Canyon Historical Data
Daily Summary for January 12, 2018 Units:  Metric    English   Both
Daily Weekly Monthly Yearly Custom
  High: Low: Average:
Temperature: -9.9 °C -18.1 °C -13 °C
Dew Point: -13.9 °C -22.1 °C -16.2 °C
Humidity: 86% 64% 77%
Wind Speed: 27.5km/h 6.8km/h 16.1km/h
Wind Gust: 42.6km/h - -
Wind- - West
Pressure: 1033.4 hPa 1016.5 hPa -
Precipitation: 0 mm    
Historical Graphs
 
 
Tabular Data for January 12, 2018
Time Temperature Dew Point Pressure Wind Wind Speed Wind Gust Humidity Rainfall Rate (Hourly) solar
00:10 -12.6 °C -14.4 °C 1016.5 hPa NW 20 km/h 25.9 km/h 86% 0 mm 0.0 W/m2
00:15 -12.6 °C -14.4 °C 1016.8 hPa NNW 15.8 km/h 20.4 km/h 86% 0 mm 0.0 W/m2
00:23 -12.7 °C -14.6 °C 1016.8 hPa NW 18.7 km/h 24.1 km/h 86% 0 mm 0.0 W/m2
00:28 -12.7 °C -14.6 °C 1016.8 hPa WNW 16.6 km/h 24.1 km/h 86% 0 mm 0.0 W/m2
00:38 -12.8 °C -14.6 °C 1017.2 hPa WNW 20 km/h 20 km/h 86% 0 mm 0.0 W/m2
00:51 -12.8 °C -14.7 °C 1017.2 hPa NW 17.9 km/h 20.4 km/h 86% 0 mm 0.0 W/m2
00:56 -12.8 °C -14.7 °C 1017.2 hPa NW 17.7 km/h 27 km/h 86% 0 mm 0.0 W/m2
01:02 -12.8 °C -14.7 °C 1017.5 hPa WNW 17.1 km/h 20.4 km/h 86% 0 mm 0.0 W/m2
01:07 -12.8 °C -14.7 °C 1017.5 hPa WNW 17.5 km/h 25.1 km/h 86% 0 mm 0.0 W/m2
01:16 -12.8 °C -14.7 °C 1017.8 hPa WNW 12.7 km/h 13 km/h 86% 0 mm 0.0 W/m2
01:22 -12.8 °C -14.7 °C 1017.5 hPa WNW 17.2 km/h 25.9 km/h 86% 0 mm 0.0 W/m2
01:28 -12.8 °C -14.6 °C 1017.8 hPa NW 16.1 km/h 16.7 km/h 86% 0 mm 0.0 W/m2
01:33 -12.7 °C -14.6 °C 1018.2 hPa WNW 12.2 km/h 23.2 km/h 86% 0 mm 0.0 W/m2
01:38 -12.7 °C -14.5 °C 1018.2 hPa WNW 18 km/h 25.9 km/h 86% 0 mm 0.0 W/m2
01:43 -12.6 °C -14.4 °C 1018.2 hPa NW 20.8 km/h 25.9 km/h 86% 0 mm 0.0 W/m2
01:58 -12.4 °C -14.2 °C 1018.5 hPa NNW 19.8 km/h 20.4 km/h 86% 0 mm 0.0 W/m2
02:05 -12.3 °C -14.2 °C 1018.5 hPa WNW 15.3 km/h 16.7 km/h 86% 0 mm 0.0 W/m2
02:10 -12.3 °C -14.1 °C 1018.8 hPa WNW 24 km/h 25.9 km/h 86% 0 mm 0.0 W/m2
02:16 -12.2 °C -14.1 °C 1018.8 hPa NW 21.2 km/h 21.2 km/h 86% 0 mm 0.0 W/m2
02:24 -12.2 °C -14.1 °C 1019.2 hPa NW 18.3 km/h 24.1 km/h 86% 0 mm 0.0 W/m2
02:40 -12.2 °C -14.1 °C 1019.5 hPa NW 17.9 km/h 20.4 km/h 86% 0 mm 0.0 W/m2
02:45 -12.2 °C -14.1 °C 1019.5 hPa NW 23.8 km/h 29.6 km/h 86% 0 mm 0.0 W/m2
02:52 -12.2 °C -14.1 °C 1019.9 hPa NW 15.6 km/h 17.4 km/h 86% 0 mm 0.0 W/m2
03:06 -12.2 °C -14.1 °C 1019.9 hPa NNW 14.5 km/h 29.6 km/h 86% 0 mm 0.0 W/m2
03:11 -12.2 °C -14.1 °C 1019.9 hPa NNW 19.3 km/h 19.3 km/h 86% 0 mm 0.0 W/m2
03:16 -12.2 °C -14.1 °C 1019.9 hPa NW 19.2 km/h 25.9 km/h 86% 0 mm 0.0 W/m2
03:22 -12.2 °C -14.1 °C 1019.9 hPa NW 14.3 km/h 25.9 km/h 86% 0 mm 0.0 W/m2
03:27 -12.2 °C -14.1 °C 1019.9 hPa NW 20.9 km/h 27.4 km/h 86% 0 mm 0.0 W/m2
03:37 -12.2 °C -14.1 °C 1019.9 hPa WNW 17.4 km/h 17.4 km/h 86% 0 mm 0.0 W/m2
03:46 -12.2 °C -14.1 °C 1020.2 hPa NW 18.7 km/h 25.9 km/h 86% 0 mm 0.0 W/m2
03:59 -12.2 °C -14.1 °C 1020.5 hPa NW 19.5 km/h 27.8 km/h 86% 0 mm 0.0 W/m2
04:04 -12.1 °C -14 °C 1020.5 hPa North 14.2 km/h 14.2 km/h 86% 0 mm 0.0 W/m2
04:12 -12.1 °C -14 °C 1020.5 hPa WNW 19 km/h 30.9 km/h 86% 0 mm 0.0 W/m2
04:19 -12.1 °C -14 °C 1020.5 hPa NW 18.7 km/h 20.4 km/h 86% 0 mm 0.0 W/m2
04:31 -12.1 °C -14 °C 1020.9 hPa NNW 21.7 km/h 27 km/h 86% 0 mm 0.0 W/m2
04:38 -12.1 °C -14.1 °C 1020.9 hPa NNW 18.2 km/h 18.2 km/h 85% 0 mm 0.0 W/m2
04:43 -12.1 °C -13.9 °C 1021.2 hPa NW 12.9 km/h 17.4 km/h 86% 0 mm 0.0 W/m2
04:51 -12.1 °C -14.1 °C 1021.2 hPa NW 18 km/h 25.9 km/h 85% 0 mm 0.0 W/m2
05:00 -12.1 °C -13.9 °C 1021.2 hPa NNW 20.3 km/h 27.8 km/h 86% 0 mm 0.0 W/m2
05:05 -12.1 °C -14.1 °C 1021.2 hPa NW 18.3 km/h 21.2 km/h 85% 0 mm 0.0 W/m2
05:13 -12.1 °C -14.1 °C 1021.2 hPa NW 22.2 km/h 31.5 km/h 85% 0 mm 0.0 W/m2
05:25 -12.1 °C -14.1 °C 1021.6 hPa North 24.8 km/h 33.3 km/h 85% 0 mm 0.0 W/m2
05:32 -12.2 °C -14.3 °C 1021.9 hPa NNW 12.4 km/h 27.8 km/h 84% 0 mm 0.0 W/m2
05:37 -12.2 °C -14.3 °C 1021.9 hPa NNW 12.7 km/h 25.9 km/h 84% 0 mm 0.0 W/m2
05:45 -12.2 °C -14.2 °C 1021.9 hPa NW 12.6 km/h 13.5 km/h 85% 0 mm 0.0 W/m2
05:50 -12.3 °C -14.3 °C 1021.9 hPa NW 18.8 km/h 25.9 km/h 85% 0 mm 0.0 W/m2
05:56 -12.3 °C -14.3 °C 1021.9 hPa North 22 km/h 32.8 km/h 85% 0 mm 0.0 W/m2
06:02 -12.4 °C -14.4 °C 1022.2 hPa NW 18.5 km/h 24.1 km/h 85% 0 mm 0.0 W/m2
06:09 -12.5 °C -14.5 °C 1022.2 hPa NNW 22.9 km/h 22.9 km/h 85% 0 mm 0.0 W/m2
06:19 -12.6 °C -14.8 °C 1022.2 hPa NNW 12.1 km/h 16.7 km/h 84% 0 mm 0.0 W/m2
06:24 -12.7 °C -14.8 °C 1022.2 hPa NNW 20.3 km/h 29.6 km/h 84% 0 mm 0.0 W/m2
06:31 -12.8 °C -14.9 °C 1022.2 hPa NNW 18 km/h 29.6 km/h 84% 0 mm 0.0 W/m2
06:44 -13.2 °C -15.3 °C 1021.9 hPa NW 12.6 km/h 20.4 km/h 84% 0 mm 0.0 W/m2
06:54 -13.5 °C -15.8 °C 1022.2 hPa NNW 16.7 km/h 27.8 km/h 83% 0 mm 0.0 W/m2
07:00 -13.7 °C -15.9 °C 1022.2 hPa NNW 18.3 km/h 25.9 km/h 83% 0 mm 0.0 W/m2
07:05 -13.7 °C -16 °C 1022.6 hPa NNE 16.3 km/h 16.3 km/h 83% 0 mm 0.0 W/m2
07:23 -13.9 °C -16.2 °C 1022.9 hPa North 11.9 km/h 18.5 km/h 83% 0 mm 0.0 W/m2
07:40 -14.1 °C -16.3 °C 1023.6 hPa NW 13.7 km/h 16.7 km/h 83% 0 mm 5.0 W/m2
07:48 -14.1 °C -16.3 °C 1023.6 hPa NNW 13.2 km/h 13.2 km/h 83% 0 mm 9.0 W/m2
07:53 -14.1 °C -16.4 °C 1023.9 hPa North 14.8 km/h 15.4 km/h 83% 0 mm 14.0 W/m2
07:58 -14.1 °C -16.2 °C 1024.3 hPa NNW 12.9 km/h 13 km/h 84% 0 mm 23.0 W/m2
08:09 -14 °C -16.3 °C 1024.3 hPa NNW 21.7 km/h 31.5 km/h 83% 0 mm 30.0 W/m2
08:15 -13.9 °C -16.2 °C 1024.3 hPa NW 19.2 km/h 24.1 km/h 83% 0 mm 37.0 W/m2
08:21 -13.8 °C -16.1 °C 1024.6 hPa NW 27.5 km/h 42.6 km/h 83% 0 mm 46.0 W/m2
08:30 -13.8 °C -16.1 °C 1024.9 hPa NNW 21.2 km/h 25.1 km/h 83% 0 mm 58.0 W/m2
08:38 -13.8 °C -16.1 °C 1024.6 hPa NW 18.5 km/h 20.4 km/h 83% 0 mm 69.0 W/m2
08:43 -13.8 °C -16.2 °C 1024.9 hPa NNW 17.5 km/h 18.5 km/h 82% 0 mm 74.0 W/m2
08:48 -13.8 °C -16.2 °C 1024.9 hPa NW 24.6 km/h 31.5 km/h 82% 0 mm 81.0 W/m2
08:54 -13.7 °C -16.1 °C 1025.3 hPa WNW 14.5 km/h 25.1 km/h 82% 0 mm 137.0 W/m2
08:59 -13.7 °C -16.1 °C 1025.3 hPa NW 21.6 km/h 25.9 km/h 82% 0 mm 151.0 W/m2
09:10 -13.5 °C -15.9 °C 1025.3 hPa NNW 24.5 km/h 29.6 km/h 82% 0 mm 162.0 W/m2
09:15 -13.4 °C -15.9 °C 1025.6 hPa NNW 14.6 km/h 20.4 km/h 81% 0 mm 221.0 W/m2
09:24 -13.4 °C -15.9 °C 1025.6 hPa NNE 16.1 km/h 25.9 km/h 81% 0 mm 69.0 W/m2
09:29 -13.4 °C -15.9 °C 1025.6 hPa NW 22.7 km/h 25.1 km/h 81% 0 mm 250.0 W/m2
09:41 -13.2 °C -15.9 °C 1025.6 hPa NNW 19 km/h 24.1 km/h 80% 0 mm 309.0 W/m2
09:49 -13 °C -15.7 °C 1025.6 hPa NNW 16.7 km/h 19.3 km/h 80% 0 mm 316.0 W/m2
09:54 -12.8 °C -15.6 °C 1025.6 hPa NNE 14.5 km/h 14.8 km/h 80% 0 mm 327.0 W/m2
10:03 -12.8 °C -15.7 °C 1025.6 hPa NNW 22.7 km/h 27 km/h 79% 0 mm 346.0 W/m2
10:08 -12.7 °C -15.6 °C 1025.6 hPa NW 12.6 km/h 13.5 km/h 79% 0 mm 352.0 W/m2
10:22 -12.4 °C -15.4 °C 1026 hPa NNE 14.5 km/h 25.7 km/h 78% 0 mm 376.0 W/m2
10:27 -12.2 °C -15.2 °C 1026 hPa North 16.1 km/h 24.1 km/h 78% 0 mm 385.0 W/m2
10:40 -12.1 °C -15.3 °C 1026.3 hPa NW 20.9 km/h 24.1 km/h 77% 0 mm 403.0 W/m2
10:52 -11.9 °C -15.3 °C 1026 hPa NW 14.5 km/h 16.7 km/h 76% 0 mm 420.0 W/m2
10:58 -11.7 °C -15.1 °C 1026 hPa NNE 15.3 km/h 18.5 km/h 76% 0 mm 429.0 W/m2
11:03 -11.7 °C -15.3 °C 1026 hPa NE 20.6 km/h 27.8 km/h 75% 0 mm 434.0 W/m2
11:08 -11.7 °C -15.2 °C 1025.6 hPa NNE 15 km/h 18.5 km/h 75% 0 mm 438.0 W/m2
11:14 -11.6 °C -15.3 °C 1025.6 hPa NNW 24 km/h 24 km/h 74% 0 mm 443.0 W/m2
11:19 -11.6 °C -15.4 °C 1025.6 hPa North 19.3 km/h 29.6 km/h 73% 0 mm 450.0 W/m2
11:24 -11.6 °C -15.3 °C 1025.6 hPa NNE 21.6 km/h 31.5 km/h 74% 0 mm 452.0 W/m2
11:31 -11.4 °C -15.3 °C 1025.6 hPa North 15.3 km/h 20.4 km/h 73% 0 mm 455.0 W/m2
11:36 -11.1 °C -15 °C 1025.6 hPa NNE 18.7 km/h 24.1 km/h 73% 0 mm 461.0 W/m2
11:43 -11 °C -15.1 °C 1025.6 hPa NNE 20.3 km/h 25.9 km/h 72% 0 mm 462.0 W/m2
11:50 -11.2 °C -15.4 °C 1025.6 hPa NNW 24.3 km/h 25.9 km/h 71% 0 mm 466.0 W/m2
12:12 -10.9 °C -15.2 °C 1025.3 hPa NNW 16.9 km/h 27.8 km/h 71% 0 mm 468.0 W/m2
12:17 -10.8 °C -14.9 °C 1025.3 hPa NW 16.3 km/h 25.9 km/h 72% 0 mm 471.0 W/m2
12:31 -10.8 °C -15.2 °C 1025.3 hPa NE 14.2 km/h 24.1 km/h 70% 0 mm 468.0 W/m2
12:36 -10.8 °C -15.2 °C 1025.6 hPa NNE 9.3 km/h 9.3 km/h 70% 0 mm 464.0 W/m2
12:45 -10.5 °C -14.9 °C 1025.3 hPa NNW 14.8 km/h 21.2 km/h 70% 0 mm 461.0 W/m2
12:56 -10.8 °C -15.6 °C 1025.6 hPa NNW 16.7 km/h 24.1 km/h 68% 0 mm 452.0 W/m2
13:03 -10.7 °C -15.4 °C 1025.6 hPa NNE 15 km/h 24.1 km/h 68% 0 mm 448.0 W/m2
13:09 -10.7 °C -15.4 °C 1025.6 hPa North 19.6 km/h 27 km/h 68% 0 mm 445.0 W/m2
13:14 -10.7 °C -15.4 °C 1025.6 hPa NE 16.1 km/h 17.4 km/h 68% 0 mm 439.0 W/m2
13:19 -10.6 °C -15.5 °C 1025.3 hPa NNE 21.4 km/h 33.3 km/h 67% 0 mm 434.0 W/m2
13:28 -10.3 °C -15.1 °C 1025.3 hPa NNE 12.6 km/h 15.4 km/h 68% 0 mm 424.0 W/m2
13:34 -10.4 °C -15.6 °C 1025.6 hPa North 16.7 km/h 18.5 km/h 66% 0 mm 418.0 W/m2
13:39 -10.3 °C -15.2 °C 1025.6 hPa North 12.6 km/h 14.8 km/h 67% 0 mm 410.0 W/m2
13:53 -10.1 °C -15.2 °C 1026 hPa NW 10.6 km/h 16.7 km/h 66% 0 mm 392.0 W/m2
14:02 -10.1 °C -15.2 °C 1025.6 hPa NNW 16.1 km/h 20.4 km/h 66% 0 mm 376.0 W/m2
14:08 -9.9 °C -15.1 °C 1025.6 hPa NNE 16.7 km/h 18.5 km/h 66% 0 mm 366.0 W/m2
14:21 -9.9 °C -15.1 °C 1026 hPa NNE 14.5 km/h 17.4 km/h 66% 0 mm 343.0 W/m2
14:32 -10 °C -15.5 °C 1026 hPa North 13 km/h 18.5 km/h 64% 0 mm 318.0 W/m2
14:41 -9.9 °C -15.2 °C 1026.3 hPa NNE 16.9 km/h 17.4 km/h 65% 0 mm 292.0 W/m2
14:46 -10 °C -15.3 °C 1026.3 hPa NE 11.3 km/h 17.4 km/h 65% 0 mm 276.0 W/m2
14:57 -9.9 °C -15.3 °C 1026.6 hPa NNE 14.5 km/h 20.4 km/h 65% 0 mm 250.0 W/m2
15:07 -9.9 °C -15.4 °C 1027 hPa NNW 19.3 km/h 20.4 km/h 64% 0 mm 141.0 W/m2
15:12 -10 °C -15.5 °C 1027 hPa NNE 15.4 km/h 18.5 km/h 64% 0 mm 141.0 W/m2
15:24 -10.2 °C -15.4 °C 1027.7 hPa North 13.8 km/h 15.4 km/h 66% 0 mm 51.0 W/m2
15:29 -10.3 °C -15.6 °C 1028 hPa NNW 15.8 km/h 16.7 km/h 65% 0 mm 70.0 W/m2
15:39 -10.3 °C -15.6 °C 1028.3 hPa NW 15 km/h 18.5 km/h 65% 0 mm 49.0 W/m2
15:48 -10.4 °C -15.5 °C 1028.7 hPa NNW 12.1 km/h 17.4 km/h 66% 0 mm 32.0 W/m2
15:55 -10.6 °C -15.9 °C 1028.7 hPa NNW 10.1 km/h 20.4 km/h 65% 0 mm 39.0 W/m2
16:06 -10.8 °C -16.1 °C 1029 hPa North 18 km/h 18.5 km/h 65% 0 mm 19.0 W/m2
16:19 -11.1 °C -16 °C 1029.3 hPa NW 10.6 km/h 13 km/h 67% 0 mm 16.0 W/m2
16:24 -11.2 °C -16.1 °C 1029.3 hPa North 15.3 km/h 15.3 km/h 67% 0 mm 14.0 W/m2
16:29 -11.2 °C -16.1 °C 1029.7 hPa NNW 9.8 km/h 14.8 km/h 67% 0 mm 11.0 W/m2
16:46 -11.5 °C -16.2 °C 1029.7 hPa NNW 7.9 km/h 9.7 km/h 68% 0 mm 0.0 W/m2
16:51 -11.6 °C -16.3 °C 1029.7 hPa North 6.8 km/h 7.4 km/h 68% 0 mm 0.0 W/m2
17:02 -11.8 °C -16.3 °C 1030 hPa NW 10.6 km/h 11.6 km/h 69% 0 mm 0.0 W/m2
17:10 -11.9 °C -16.4 °C 1030.4 hPa NNW 10.5 km/h 11.1 km/h 69% 0 mm 0.0 W/m2
17:17 -12 °C -16.6 °C 1030.4 hPa NNW 10.6 km/h 14.8 km/h 69% 0 mm 0.0 W/m2
17:22 -12.1 °C -16.4 °C 1030.4 hPa NW 11.7 km/h 13 km/h 70% 0 mm 0.0 W/m2
17:30 -12.2 °C -16.4 °C 1030.4 hPa NNW 9 km/h 11.6 km/h 71% 0 mm 0.0 W/m2
17:37 -12.3 °C -16.3 °C 1030.7 hPa North 9 km/h 13.5 km/h 72% 0 mm 0.0 W/m2
17:44 -12.4 °C -16.4 °C 1031 hPa NW 10.9 km/h 14.8 km/h 72% 0 mm 0.0 W/m2
17:49 -12.6 °C -16.4 °C 1031 hPa NNW 13.5 km/h 13.5 km/h 73% 0 mm 0.0 W/m2
17:55 -12.7 °C -16.5 °C 1031 hPa NW 10.6 km/h 13.5 km/h 73% 0 mm 0.0 W/m2
18:04 -12.8 °C -16.6 °C 1031.4 hPa NW 14.2 km/h 20.4 km/h 73% 0 mm 0.0 W/m2
18:09 -12.8 °C -16.7 °C 1031.4 hPa NNW 20.1 km/h 20.1 km/h 73% 0 mm 0.0 W/m2
18:19 -12.9 °C -16.8 °C 1031.7 hPa NE 11.9 km/h 16.7 km/h 73% 0 mm 0.0 W/m2
18:25 -13.1 °C -16.8 °C 1031.7 hPa NW 17.2 km/h 20.4 km/h 74% 0 mm 0.0 W/m2
18:33 -13.4 °C -16.9 °C 1031.7 hPa NW 15 km/h 16.7 km/h 75% 0 mm 0.0 W/m2
18:51 -14.2 °C -17.5 °C 1031.7 hPa NNW 12.2 km/h 25.9 km/h 76% 0 mm 0.0 W/m2
19:00 -14.5 °C -17.7 °C 1031.7 hPa NW 13.4 km/h 16.7 km/h 77% 0 mm 0.0 W/m2
19:06 -14.6 °C -17.8 °C 1032.1 hPa NW 16.9 km/h 24.1 km/h 77% 0 mm 0.0 W/m2
19:12 -14.7 °C -17.8 °C 1031.7 hPa NNW 11.6 km/h 13.5 km/h 77% 0 mm 0.0 W/m2
19:27 -15.1 °C -18.2 °C 1032.1 hPa NNW 12.4 km/h 12.4 km/h 77% 0 mm 0.0 W/m2
19:33 -15.2 °C -18.3 °C 1032.1 hPa NNW 14 km/h 25.9 km/h 77% 0 mm 0.0 W/m2
19:38 -15.3 °C -18.6 °C 1032.1 hPa NW 20.1 km/h 29.6 km/h 76% 0 mm 0.0 W/m2
19:43 -15.4 °C -18.7 °C 1032.1 hPa NW 17.1 km/h 27.8 km/h 76% 0 mm 0.0 W/m2
19:48 -15.5 °C -18.8 °C 1032.1 hPa NW 19.6 km/h 23.2 km/h 76% 0 mm 0.0 W/m2
19:55 -15.6 °C -18.7 °C 1032.4 hPa NW 13 km/h 19.3 km/h 77% 0 mm 0.0 W/m2
20:03 -15.7 °C -19 °C 1032.4 hPa North 13.2 km/h 14.8 km/h 76% 0 mm 0.0 W/m2
20:08 -15.8 °C -19.1 °C 1032.4 hPa NW 15.8 km/h 17.4 km/h 76% 0 mm 0.0 W/m2
20:13 -15.9 °C -19.3 °C 1032.4 hPa WNW 14.2 km/h 25.9 km/h 75% 0 mm 0.0 W/m2
20:26 -16.1 °C -19.3 °C 1032.4 hPa WNW 10.6 km/h 13.5 km/h 76% 0 mm 0.0 W/m2
20:32 -16.1 °C -19.4 °C 1032.4 hPa NW 16.1 km/h 24.1 km/h 76% 0 mm 0.0 W/m2
20:37 -16.2 °C -19.6 °C 1032.7 hPa NW 14.5 km/h 25.7 km/h 75% 0 mm 0.0 W/m2
20:44 -16.3 °C -19.7 °C 1032.4 hPa NW 18.5 km/h 20.4 km/h 75% 0 mm 0.0 W/m2
20:49 -16.3 °C -19.7 °C 1032.4 hPa West 16.7 km/h 21.2 km/h 75% 0 mm 0.0 W/m2
20:57 -16.4 °C -19.8 °C 1032.7 hPa NW 16.7 km/h 18.5 km/h 75% 0 mm 0.0 W/m2
21:04 -16.4 °C -20 °C 1032.4 hPa WNW 14.8 km/h 14.8 km/h 74% 0 mm 0.0 W/m2
21:10 -16.6 °C -20.1 °C 1032.7 hPa NNW 20 km/h 25.9 km/h 74% 0 mm 0.0 W/m2
21:17 -16.7 °C -20.4 °C 1032.7 hPa NNW 15.1 km/h 24.1 km/h 73% 0 mm 0.0 W/m2
21:29 -16.8 °C -20.3 °C 1032.7 hPa NW 13.4 km/h 13.4 km/h 74% 0 mm 0.0 W/m2
21:37 -16.9 °C -20.4 °C 1032.7 hPa NNW 16.3 km/h 27.8 km/h 74% 0 mm 0.0 W/m2
21:43 -16.9 °C -20.7 °C 1032.7 hPa NW 15.4 km/h 16.7 km/h 73% 0 mm 0.0 W/m2
21:51 -17.1 °C -20.7 °C 1033.1 hPa NW 13.8 km/h 13.8 km/h 73% 0 mm 0.0 W/m2
21:59 -17.2 °C -20.8 °C 1033.1 hPa NW 13.4 km/h 16.7 km/h 73% 0 mm 0.0 W/m2
22:30 -17.4 °C -21.3 °C 1032.7 hPa WNW 11.3 km/h 24.1 km/h 72% 0 mm 0.0 W/m2
22:46 -17.6 °C -21.6 °C 1032.7 hPa NW 13 km/h 18.5 km/h 71% 0 mm 0.0 W/m2
23:00 -17.7 °C -21.7 °C 1033.1 hPa North 11.7 km/h 11.7 km/h 71% 0 mm 0.0 W/m2
23:06 -17.7 °C -21.7 °C 1033.1 hPa NW 7.1 km/h 16.7 km/h 71% 0 mm 0.0 W/m2
23:13 -17.7 °C -21.7 °C 1033.1 hPa NW 13.4 km/h 17.4 km/h 71% 0 mm 0.0 W/m2
23:22 -17.8 °C -21.8 °C 1033.1 hPa NNW 14.5 km/h 24.1 km/h 71% 0 mm 0.0 W/m2
23:38 -17.9 °C -21.9 °C 1033.1 hPa NNW 13.4 km/h 18.5 km/h 71% 0 mm 0.0 W/m2
23:43 -17.9 °C -21.9 °C 1033.4 hPa NW 11.1 km/h 13 km/h 71% 0 mm 0.0 W/m2
23:51 -18.1 °C -22.1 °C 1033.1 hPa NNW 11.9 km/h 16.7 km/h 71% 0 mm 0.0 W/m2
23:58 -18.1 °C -22.1 °C 1033.1 hPa WNW 10.9 km/h 15.4 km/h 71% 0 mm 0.0 W/m2
Soleil - Laurel Canyon
Compliments of Weather Underground - 2.5 mb